createdAt,value
2023-03-07T00:00:15.399Z,98666.31
2023-03-07T00:02:42.367Z,98662.00
2023-03-07T00:05:12.296Z,98674.16
2023-03-07T00:07:39.327Z,98672.06
2023-03-07T00:10:08.029Z,98669.19
2023-03-07T00:12:35.187Z,98670.84
2023-03-07T00:15:03.941Z,98672.25
2023-03-07T00:17:30.828Z,98663.22
2023-03-07T00:19:57.714Z,98661.75
2023-03-07T00:22:24.833Z,98663.78
2023-03-07T00:24:51.623Z,98665.28
2023-03-07T00:27:18.507Z,98659.50
2023-03-07T00:29:45.293Z,98661.97
2023-03-07T00:32:13.541Z,98655.19
2023-03-07T00:34:40.353Z,98656.47
2023-03-07T00:37:07.200Z,98659.75
2023-03-07T00:42:00.470Z,98668.16
2023-03-07T00:44:27.439Z,98654.19
2023-03-07T00:46:54.256Z,98637.53
2023-03-07T00:49:22.648Z,98643.50
2023-03-07T00:51:49.547Z,98647.63
2023-03-07T00:54:16.652Z,98643.66
2023-03-07T00:56:44.045Z,98649.63
2023-03-07T00:59:10.989Z,98633.19
2023-03-07T01:01:38.384Z,98641.00
2023-03-07T01:04:05.467Z,98641.19
2023-03-07T01:06:34.997Z,98639.34
2023-03-07T01:09:05.892Z,98644.31
2023-03-07T01:11:34.951Z,98644.44
2023-03-07T01:14:05.944Z,98632.19
2023-03-07T01:16:37.695Z,98640.19
2023-03-07T01:19:08.222Z,98627.03
2023-03-07T01:21:40.193Z,98630.09
2023-03-07T01:24:12.765Z,98628.94
2023-03-07T01:26:39.824Z,98620.47
2023-03-07T01:29:08.358Z,98627.50
2023-03-07T01:31:36.526Z,98624.66
2023-03-07T01:34:05.644Z,98619.09
2023-03-07T01:36:37.462Z,98619.75
2023-03-07T01:39:08.430Z,98618.91
2023-03-07T01:41:38.304Z,98616.03
2023-03-07T01:44:16.618Z,98609.25
2023-03-07T01:46:48.310Z,98597.53
2023-03-07T01:49:23.294Z,98598.81
2023-03-07T01:52:03.571Z,98594.72
2023-03-07T01:54:37.614Z,98586.88
2023-03-07T01:57:06.138Z,98591.88
2023-03-07T01:59:40.384Z,98590.59
2023-03-07T02:02:13.662Z,98584.47
2023-03-07T02:04:49.330Z,98587.72
2023-03-07T02:07:22.235Z,98578.53
2023-03-07T02:09:52.088Z,98583.38
2023-03-07T02:12:18.981Z,98579.13
2023-03-07T02:14:49.147Z,98579.16
2023-03-07T02:17:18.756Z,98572.78
2023-03-07T02:20:11.334Z,98576.25
2023-03-07T02:22:40.621Z,98563.88
2023-03-07T02:25:19.107Z,98562.28
2023-03-07T02:27:53.285Z,98563.72
2023-03-07T02:30:22.081Z,98559.38
2023-03-07T02:32:51.664Z,98555.88
2023-03-07T02:35:23.633Z,98553.19
2023-03-07T02:37:59.695Z,98548.66
2023-03-07T02:40:31.302Z,98549.28
2023-03-07T02:43:04.068Z,98547.63
2023-03-07T02:45:31.888Z,98537.56
2023-03-07T02:47:58.711Z,98535.97
2023-03-07T02:50:25.661Z,98544.59
2023-03-07T02:52:53.678Z,98544.78
2023-03-07T02:55:20.595Z,98538.63
2023-03-07T02:57:53.735Z,98541.91
2023-03-07T03:00:22.971Z,98540.09
2023-03-07T03:02:50.258Z,98533.28
2023-03-07T03:05:19.763Z,98535.91
2023-03-07T03:07:46.565Z,98536.16
2023-03-07T03:10:13.465Z,98545.66
2023-03-07T03:12:40.974Z,98537.25
2023-03-07T03:15:09.491Z,98535.59
2023-03-07T03:17:38.636Z,98532.72
2023-03-07T03:20:07.748Z,98534.78
2023-03-07T03:22:36.000Z,98534.78
2023-03-07T03:25:06.897Z,98529.84
2023-03-07T03:27:34.364Z,98527.59
2023-03-07T03:30:01.364Z,98521.81
2023-03-07T03:32:30.450Z,98531.09
2023-03-07T03:34:59.174Z,98527.97
2023-03-07T03:37:26.273Z,98522.84
2023-03-07T03:39:54.151Z,98518.72
2023-03-07T03:42:21.257Z,98522.63
2023-03-07T03:44:48.386Z,98518.69
2023-03-07T03:47:15.608Z,98518.88
2023-03-07T03:49:42.696Z,98519.09
2023-03-07T03:52:11.731Z,98519.34
2023-03-07T03:54:38.504Z,98519.13
2023-03-07T03:57:05.620Z,98514.63
2023-03-07T03:59:32.630Z,98513.38
2023-03-07T04:01:59.725Z,98504.34
2023-03-07T04:04:26.576Z,98507.88
2023-03-07T04:07:26.396Z,98511.75
2023-03-07T04:09:53.402Z,98502.31
2023-03-07T04:12:20.596Z,98499.22
2023-03-07T04:14:47.517Z,98499.22
2023-03-07T04:17:14.629Z,98489.16
2023-03-07T04:19:41.537Z,98495.75
2023-03-07T04:22:10.041Z,98489.38
2023-03-07T04:24:40.090Z,98490.38
2023-03-07T04:27:07.686Z,98488.97
2023-03-07T04:29:36.201Z,98485.91
2023-03-07T04:32:12.089Z,98474.38
2023-03-07T04:34:39.373Z,98479.09
2023-03-07T04:37:06.422Z,98473.13
2023-03-07T04:39:33.293Z,98479.94
2023-03-07T04:42:01.703Z,98478.91
2023-03-07T04:44:34.256Z,98465.31
2023-03-07T04:47:01.154Z,98461.22
2023-03-07T04:49:28.692Z,98459.56
2023-03-07T04:51:55.542Z,98453.41
2023-03-07T04:54:22.542Z,98452.16
2023-03-07T04:56:50.564Z,98448.25
2023-03-07T04:59:21.316Z,98454.19
2023-03-07T05:01:49.310Z,98444.97
2023-03-07T05:04:16.394Z,98447.22
2023-03-07T05:06:44.029Z,98453.00
2023-03-07T05:09:11.971Z,98449.69
2023-03-07T05:11:39.353Z,98450.09
2023-03-07T05:14:07.791Z,98447.00
2023-03-07T05:16:36.039Z,98441.66
2023-03-07T05:19:05.988Z,98439.41
2023-03-07T05:21:33.358Z,98453.00
2023-03-07T05:24:00.698Z,98436.31
2023-03-07T05:26:28.761Z,98434.03
2023-03-07T05:28:55.602Z,98441.03
2023-03-07T05:31:22.716Z,98435.69
2023-03-07T05:33:51.574Z,98437.72
2023-03-07T05:36:18.603Z,98432.59
2023-03-07T05:38:45.585Z,98427.03
2023-03-07T05:41:12.946Z,98430.13
2023-03-07T05:43:40.143Z,98434.25
2023-03-07T05:46:07.435Z,98442.28
2023-03-07T05:48:34.660Z,98440.63
2023-03-07T05:51:02.944Z,98437.34
2023-03-07T05:53:30.506Z,98422.97
2023-03-07T05:55:57.718Z,98431.97
2023-03-07T05:58:24.801Z,98435.69
2023-03-07T06:00:51.763Z,98427.03
2023-03-07T06:03:19.815Z,98418.59
2023-03-07T06:05:49.145Z,98422.94
2023-03-07T06:08:17.499Z,98418.81
2023-03-07T06:10:44.444Z,98418.81
2023-03-07T06:13:17.755Z,98421.69
2023-03-07T06:15:44.617Z,98415.31
2023-03-07T06:18:13.047Z,98412.25
2023-03-07T06:20:40.198Z,98407.13
2023-03-07T06:23:07.125Z,98412.66
2023-03-07T06:25:38.035Z,98414.72
2023-03-07T06:28:05.783Z,98413.88
2023-03-07T06:30:33.132Z,98410.19
2023-03-07T06:33:00.228Z,98413.06
2023-03-07T06:35:27.038Z,98411.41
2023-03-07T06:37:54.326Z,98413.06
2023-03-07T06:40:21.189Z,98413.47
2023-03-07T06:42:51.375Z,98419.00
2023-03-07T06:45:18.859Z,98416.75
2023-03-07T06:47:45.719Z,98417.78
2023-03-07T06:50:13.187Z,98414.50
2023-03-07T06:52:40.920Z,98416.34
2023-03-07T06:55:09.482Z,98419.84
2023-03-07T06:57:36.789Z,98427.47
2023-03-07T07:00:07.554Z,98419.44
2023-03-07T07:02:34.890Z,98421.69
2023-03-07T07:05:01.692Z,98428.91
2023-03-07T07:07:29.779Z,98422.94
2023-03-07T07:09:57.544Z,98425.41
2023-03-07T07:12:24.488Z,98418.84
2023-03-07T07:14:51.314Z,98418.84
2023-03-07T07:17:19.796Z,98422.09
2023-03-07T07:19:47.564Z,98415.94
2023-03-07T07:22:16.117Z,98421.91
2023-03-07T07:24:42.946Z,98413.69
2023-03-07T07:27:12.565Z,98420.50
2023-03-07T07:29:39.747Z,98423.97
2023-03-07T07:32:09.206Z,98421.91
2023-03-07T07:34:37.523Z,98420.22
2023-03-07T07:37:04.851Z,98419.19
2023-03-07T07:39:32.226Z,98406.03
2023-03-07T07:41:59.307Z,98407.03
2023-03-07T07:44:30.127Z,98410.69
2023-03-07T07:46:59.146Z,98410.50
2023-03-07T07:49:27.143Z,98408.81
2023-03-07T07:51:55.700Z,98417.47
2023-03-07T07:54:22.825Z,98413.31
2023-03-07T07:56:50.487Z,98416.56
2023-03-07T07:59:18.165Z,98414.09
2023-03-07T08:01:46.945Z,98414.88
2023-03-07T08:04:13.820Z,98411.75
2023-03-07T08:06:40.684Z,98409.88
2023-03-07T08:09:09.152Z,98402.81
2023-03-07T08:11:35.932Z,98394.78
2023-03-07T08:14:03.132Z,98400.13
2023-03-07T08:16:30.216Z,98400.47
2023-03-07T08:18:58.172Z,98385.91
2023-03-07T08:21:26.362Z,98393.19
2023-03-07T08:23:54.406Z,98391.16
2023-03-07T08:26:24.332Z,98393.06
2023-03-07T08:28:51.259Z,98391.47
2023-03-07T08:31:22.026Z,98388.47
2023-03-07T08:33:49.867Z,98386.94
2023-03-07T08:36:17.077Z,98386.41
2023-03-07T08:38:44.115Z,98381.94
2023-03-07T08:41:11.073Z,98387.78
2023-03-07T08:43:41.111Z,98376.38
2023-03-07T08:46:08.151Z,98382.13
2023-03-07T08:48:35.998Z,98376.97
2023-03-07T08:51:08.037Z,98382.81
2023-03-07T08:53:35.343Z,98371.50
2023-03-07T08:56:07.529Z,98378.91
2023-03-07T08:58:34.866Z,98365.25
2023-03-07T09:01:05.906Z,98358.69
2023-03-07T09:03:32.830Z,98363.16
2023-03-07T09:05:59.816Z,98356.56
2023-03-07T09:08:28.442Z,98355.72
2023-03-07T09:10:55.575Z,98356.81
2023-03-07T09:13:22.632Z,98359.56
2023-03-07T09:15:49.485Z,98371.09
2023-03-07T09:18:17.635Z,98365.75
2023-03-07T09:20:44.446Z,98365.06
2023-03-07T09:23:11.551Z,98351.22
2023-03-07T09:25:38.339Z,98364.06
2023-03-07T09:28:05.425Z,98352.31
2023-03-07T09:30:32.397Z,98356.91
2023-03-07T09:32:59.396Z,98354.59
2023-03-07T09:35:28.288Z,98354.53
2023-03-07T09:37:55.147Z,98354.03
2023-03-07T09:40:26.593Z,98362.81
2023-03-07T09:43:05.580Z,98366.94
2023-03-07T09:45:49.451Z,98354.88
2023-03-07T09:49:03.420Z,98353.09
2023-03-07T09:51:39.199Z,98346.69
2023-03-07T09:54:13.845Z,98357.69
2023-03-07T09:56:50.197Z,98356.97
2023-03-07T09:59:29.096Z,98358.75
2023-03-07T10:02:12.526Z,98343.06
2023-03-07T10:04:52.505Z,98345.25
2023-03-07T10:07:27.035Z,98343.75
2023-03-07T10:10:00.313Z,98339.97
2023-03-07T10:12:58.076Z,98343.47
2023-03-07T10:15:45.450Z,98341.41
2023-03-07T10:18:41.058Z,98333.47
2023-03-07T10:21:23.599Z,98338.97
2023-03-07T10:24:14.613Z,98330.94
2023-03-07T10:26:54.397Z,98320.59
2023-03-07T10:29:29.972Z,98334.91
2023-03-07T10:32:17.684Z,98336.59
2023-03-07T10:34:46.300Z,98328.72
2023-03-07T10:37:19.653Z,98320.66
2023-03-07T10:39:52.362Z,98318.66
2023-03-07T10:42:24.092Z,98320.53
2023-03-07T10:44:52.261Z,98315.56
2023-03-07T10:47:22.857Z,98296.34
2023-03-07T10:49:56.873Z,98319.75
2023-03-07T10:52:34.883Z,98316.19
2023-03-07T10:55:37.461Z,98305.69
2023-03-07T10:58:21.285Z,98310.50
2023-03-07T11:01:03.512Z,98305.72
2023-03-07T11:03:52.241Z,98299.22
2023-03-07T11:06:31.564Z,98283.84
2023-03-07T11:09:16.267Z,98278.63
2023-03-07T11:11:52.519Z,98272.41
2023-03-07T11:14:19.600Z,98273.03
2023-03-07T11:16:55.604Z,98272.06
2023-03-07T11:19:36.920Z,98275.66
2023-03-07T11:22:16.536Z,98277.19
2023-03-07T11:24:51.905Z,98271.34
2023-03-07T11:27:31.632Z,98270.44
2023-03-07T11:30:18.105Z,98264.19
2023-03-07T11:33:10.668Z,98259.66
2023-03-07T11:35:56.270Z,98265.63
2023-03-07T11:38:38.467Z,98269.41
2023-03-07T11:41:13.820Z,98263.38
2023-03-07T11:44:05.464Z,98261.53
2023-03-07T11:46:58.671Z,98253.81
2023-03-07T11:50:13.668Z,98253.00
2023-03-07T11:53:08.505Z,98252.44
2023-03-07T11:55:44.942Z,98257.34
2023-03-07T11:58:35.872Z,98253.59
2023-03-07T12:01:20.759Z,98238.38
2023-03-07T12:04:31.120Z,98235.25
2023-03-07T12:07:18.410Z,98241.88
2023-03-07T12:09:56.967Z,98240.16
2023-03-07T12:12:52.008Z,98238.38
2023-03-07T12:15:34.164Z,98234.06
2023-03-07T12:18:29.549Z,98223.78
2023-03-07T12:21:18.015Z,98236.88
2023-03-07T12:23:52.083Z,98233.00
2023-03-07T12:26:28.224Z,98227.88
2023-03-07T12:29:06.005Z,98222.28
2023-03-07T12:31:40.090Z,98221.56
2023-03-07T12:34:20.215Z,98216.19
2023-03-07T12:36:56.606Z,98210.22
2023-03-07T12:39:36.260Z,98210.03
2023-03-07T12:42:13.740Z,98208.25
2023-03-07T12:44:49.076Z,98202.06
2023-03-07T12:47:25.454Z,98200.06
2023-03-07T12:50:02.506Z,98190.97
2023-03-07T12:52:42.144Z,98187.25
2023-03-07T12:55:23.602Z,98176.94
2023-03-07T12:58:06.533Z,98180.09
2023-03-07T13:00:41.769Z,98187.47
2023-03-07T13:03:19.334Z,98178.22
2023-03-07T13:05:48.632Z,98181.13
2023-03-07T13:08:23.003Z,98174.91
2023-03-07T13:10:50.633Z,98169.31
2023-03-07T13:13:55.973Z,98169.91
2023-03-07T13:16:43.112Z,98173.44
2023-03-07T13:19:52.813Z,98172.97
2023-03-07T13:23:11.244Z,98173.16
2023-03-07T13:26:05.870Z,98173.56
2023-03-07T13:28:50.488Z,98166.06
2023-03-07T13:31:40.084Z,98177.16
2023-03-07T13:34:48.763Z,98174.59
2023-03-07T13:37:54.105Z,98171.56
2023-03-07T13:40:50.775Z,98173.41
2023-03-07T13:44:02.185Z,98167.91
2023-03-07T13:46:47.938Z,98164.66
2023-03-07T13:49:45.550Z,98167.34
2023-03-07T13:52:24.724Z,98174.25
2023-03-07T13:54:52.330Z,98169.22
2023-03-07T13:57:29.116Z,98167.47
2023-03-07T13:59:57.304Z,98165.53
2023-03-07T14:02:24.606Z,98160.47
2023-03-07T14:04:55.383Z,98153.97
2023-03-07T14:07:27.146Z,98168.31
2023-03-07T14:09:58.033Z,98162.09
2023-03-07T14:12:48.816Z,98177.53
2023-03-07T14:15:31.776Z,98177.38
2023-03-07T14:18:22.508Z,98176.22
2023-03-07T14:21:01.340Z,98174.72
2023-03-07T14:24:12.930Z,98182.94
2023-03-07T14:26:44.028Z,98177.69
2023-03-07T14:29:18.915Z,98167.53
2023-03-07T14:31:47.517Z,98177.50
2023-03-07T14:34:26.461Z,98183.81
2023-03-07T14:36:57.456Z,98184.63
2023-03-07T14:39:36.377Z,98178.31
2023-03-07T14:42:21.964Z,98179.72
2023-03-07T14:45:14.778Z,98181.63
2023-03-07T14:48:03.659Z,98178.22
2023-03-07T14:50:32.530Z,98184.31
2023-03-07T14:53:05.238Z,98176.00
2023-03-07T14:55:39.614Z,98177.19
2023-03-07T14:58:07.256Z,98168.16
2023-03-07T15:00:35.665Z,98170.00
2023-03-07T15:03:05.912Z,98172.25
2023-03-07T15:05:36.077Z,98177.75
2023-03-07T15:08:03.464Z,98170.47
2023-03-07T15:10:41.833Z,98167.34
2023-03-07T15:13:23.394Z,98153.88
2023-03-07T15:16:00.098Z,98173.31
2023-03-07T15:18:33.543Z,98174.81
2023-03-07T15:21:03.966Z,98175.28
2023-03-07T15:23:31.994Z,98172.25
2023-03-07T15:26:03.960Z,98174.22
2023-03-07T15:28:35.617Z,98179.59
2023-03-07T15:31:04.594Z,98180.75
2023-03-07T15:33:33.313Z,98185.16
2023-03-07T15:36:25.467Z,98177.56
2023-03-07T15:39:12.371Z,98167.50
2023-03-07T15:41:39.180Z,98181.03
2023-03-07T15:44:18.021Z,98178.63
2023-03-07T15:46:50.318Z,98173.25
2023-03-07T15:49:25.561Z,98180.72
2023-03-07T15:51:55.631Z,98179.09
2023-03-07T15:54:36.066Z,98184.34
2023-03-07T15:57:07.341Z,98180.03
2023-03-07T15:59:38.491Z,98183.19
2023-03-07T16:02:41.408Z,98187.94
2023-03-07T16:05:37.234Z,98188.41
2023-03-07T16:08:30.737Z,98189.22
2023-03-07T16:11:02.140Z,98195.97
2023-03-07T16:13:33.681Z,98189.94
2023-03-07T16:16:06.349Z,98187.25
2023-03-07T16:18:35.196Z,98189.72
2023-03-07T16:21:02.597Z,98190.13
2023-03-07T16:23:29.895Z,98188.38
2023-03-07T16:25:57.532Z,98191.66
2023-03-07T16:28:24.823Z,98186.38
2023-03-07T16:30:51.630Z,98198.41
2023-03-07T16:33:18.776Z,98196.63
2023-03-07T16:35:47.113Z,98192.66
2023-03-07T16:38:14.026Z,98190.44
2023-03-07T16:40:45.214Z,98197.31
2023-03-07T16:43:33.260Z,98199.47
2023-03-07T16:46:03.926Z,98195.53
2023-03-07T16:48:31.128Z,98198.00
2023-03-07T16:50:59.744Z,98193.53
2023-03-07T16:53:26.602Z,98191.81
2023-03-07T16:55:57.697Z,98203.16
2023-03-07T16:58:30.966Z,98198.56
2023-03-07T17:00:57.967Z,98192.75
2023-03-07T17:03:25.442Z,98196.88
2023-03-07T17:05:52.969Z,98191.25
2023-03-07T17:08:21.203Z,98194.47
2023-03-07T17:10:48.105Z,98196.56
2023-03-07T17:13:18.463Z,98198.22
2023-03-07T17:15:45.436Z,98187.03
2023-03-07T17:18:13.498Z,98203.16
2023-03-07T17:20:41.110Z,98198.78
2023-03-07T17:23:08.609Z,98205.59
2023-03-07T17:25:37.107Z,98201.13
2023-03-07T17:28:08.406Z,98210.41
2023-03-07T17:30:35.877Z,98214.44
2023-03-07T17:33:03.085Z,98208.84
2023-03-07T17:35:29.979Z,98205.22
2023-03-07T17:37:56.997Z,98220.56
2023-03-07T17:40:23.967Z,98217.56
2023-03-07T17:42:52.681Z,98225.38
2023-03-07T17:45:20.508Z,98224.50
2023-03-07T17:47:50.561Z,98223.47
2023-03-07T17:50:17.601Z,98223.47
2023-03-07T17:52:51.962Z,98240.31
2023-03-07T17:55:19.881Z,98229.34
2023-03-07T17:57:47.014Z,98233.38
2023-03-07T18:00:18.170Z,98244.34
2023-03-07T18:02:46.845Z,98243.88
2023-03-07T18:05:14.122Z,98248.34
2023-03-07T18:07:41.592Z,98243.28
2023-03-07T18:10:11.435Z,98243.28
2023-03-07T18:12:39.543Z,98248.19
2023-03-07T18:15:11.414Z,98261.16
2023-03-07T18:17:47.807Z,98251.25
2023-03-07T18:20:21.077Z,98259.31
2023-03-07T18:22:48.916Z,98261.56
2023-03-07T18:25:17.625Z,98255.69
2023-03-07T18:27:45.835Z,98256.69
2023-03-07T18:30:14.624Z,98264.75
2023-03-07T18:32:43.064Z,98241.88
2023-03-07T18:35:10.978Z,98246.78
2023-03-07T18:37:37.919Z,98256.19
2023-03-07T18:40:06.282Z,98250.91
2023-03-07T18:42:33.256Z,98249.75
2023-03-07T18:45:00.444Z,98264.31
2023-03-07T18:47:27.325Z,98265.34
2023-03-07T18:49:55.718Z,98269.31
2023-03-07T18:52:22.523Z,98271.31
2023-03-07T18:54:49.619Z,98268.56
2023-03-07T18:57:16.872Z,98278.63
2023-03-07T18:59:43.793Z,98277.72
2023-03-07T19:02:12.739Z,98282.72
2023-03-07T19:04:39.577Z,98277.38
2023-03-07T19:07:09.297Z,98276.75
2023-03-07T19:09:36.258Z,98282.88
2023-03-07T19:12:03.428Z,98285.53
2023-03-07T19:14:30.902Z,98279.94
2023-03-07T19:16:57.779Z,98284.31
2023-03-07T19:19:24.692Z,98291.06
2023-03-07T19:21:51.530Z,98281.75
2023-03-07T19:24:19.760Z,98280.28
2023-03-07T19:26:48.563Z,98284.59
2023-03-07T19:29:15.533Z,98280.94
2023-03-07T19:31:42.861Z,98289.22
2023-03-07T19:34:10.423Z,98297.91
2023-03-07T19:36:39.460Z,98288.44
2023-03-07T19:39:06.387Z,98297.09
2023-03-07T19:41:34.629Z,98303.50
2023-03-07T19:44:01.597Z,98297.56
2023-03-07T19:46:28.668Z,98301.50
2023-03-07T19:48:56.129Z,98292.34
2023-03-07T19:51:25.619Z,98296.44
2023-03-07T19:53:57.115Z,98294.59
2023-03-07T19:56:27.203Z,98296.06
2023-03-07T19:58:56.884Z,98304.94
2023-03-07T20:01:25.500Z,98308.81
2023-03-07T20:03:54.066Z,98311.88
2023-03-07T20:06:24.274Z,98318.06
2023-03-07T20:08:54.682Z,98313.38
2023-03-07T20:11:26.394Z,98315.06
2023-03-07T20:13:56.877Z,98316.28
2023-03-07T20:16:25.194Z,98306.97
2023-03-07T20:18:54.230Z,98319.09
2023-03-07T20:21:23.182Z,98314.56
2023-03-07T20:23:51.218Z,98307.03
2023-03-07T20:26:21.451Z,98309.88
2023-03-07T20:28:49.117Z,98314.41
2023-03-07T20:31:19.560Z,98301.59
2023-03-07T20:33:46.901Z,98309.34
2023-03-07T20:36:18.162Z,98319.63
2023-03-07T20:38:48.867Z,98332.38
2023-03-07T20:41:18.859Z,98328.66
2023-03-07T20:43:45.928Z,98337.59
2023-03-07T20:46:15.984Z,98332.63
2023-03-07T20:48:45.241Z,98329.09
2023-03-07T20:51:15.317Z,98332.91
2023-03-07T20:53:42.452Z,98336.53
2023-03-07T20:56:09.300Z,98332.63
2023-03-07T20:58:36.314Z,98343.34
2023-03-07T21:01:04.510Z,98346.03
2023-03-07T21:03:31.537Z,98342.28
2023-03-07T21:06:02.165Z,98344.97
2023-03-07T21:08:32.662Z,98341.69
2023-03-07T21:11:01.246Z,98354.53
2023-03-07T21:13:29.758Z,98329.59
2023-03-07T21:15:59.881Z,98347.72
2023-03-07T21:18:27.625Z,98349.31
2023-03-07T21:20:58.038Z,98348.09
2023-03-07T21:23:26.657Z,98355.19
2023-03-07T21:26:00.515Z,98364.56
2023-03-07T21:28:27.700Z,98374.19
2023-03-07T21:30:59.861Z,98389.06
2023-03-07T21:33:28.152Z,98388.69
2023-03-07T21:35:55.379Z,98392.72
2023-03-07T21:38:23.042Z,98395.00
2023-03-07T21:40:51.281Z,98380.47
2023-03-07T21:43:18.161Z,98379.56
2023-03-07T21:45:45.183Z,98379.28
2023-03-07T21:48:12.518Z,98389.41
2023-03-07T21:50:42.307Z,98388.16
2023-03-07T21:53:09.546Z,98391.22
2023-03-07T21:55:36.605Z,98390.94
2023-03-07T21:58:05.530Z,98385.16
2023-03-07T22:00:32.820Z,98387.63
2023-03-07T22:02:59.912Z,98388.19
2023-03-07T22:05:26.836Z,98387.63
2023-03-07T22:07:53.723Z,98381.53
2023-03-07T22:10:20.618Z,98387.50
2023-03-07T22:12:47.485Z,98379.44
2023-03-07T22:15:15.787Z,98386.66
2023-03-07T22:17:42.852Z,98376.75
2023-03-07T22:20:11.723Z,98373.91
2023-03-07T22:22:39.116Z,98375.25
2023-03-07T22:25:07.526Z,98376.09
2023-03-07T22:27:34.414Z,98378.53
2023-03-07T22:30:01.276Z,98375.28
2023-03-07T22:32:29.767Z,98382.03
2023-03-07T22:34:56.967Z,98364.94
2023-03-07T22:37:23.874Z,98379.84
2023-03-07T22:39:51.347Z,98385.91
2023-03-07T22:42:18.248Z,98392.41
2023-03-07T22:44:45.140Z,98384.91
2023-03-07T22:47:11.973Z,98400.31
2023-03-07T22:49:40.412Z,98387.13
2023-03-07T22:52:07.575Z,98394.81
2023-03-07T22:54:34.332Z,98396.88
2023-03-07T22:57:01.430Z,98403.22
2023-03-07T22:59:28.294Z,98390.44
2023-03-07T23:01:55.238Z,98383.38
2023-03-07T23:04:22.133Z,98397.00
2023-03-07T23:06:50.518Z,98394.31
2023-03-07T23:09:17.663Z,98396.78
2023-03-07T23:11:44.460Z,98414.78
2023-03-07T23:14:11.235Z,98409.31
2023-03-07T23:16:38.353Z,98412.97
2023-03-07T23:19:05.739Z,98406.69
2023-03-07T23:21:34.139Z,98401.09
2023-03-07T23:24:04.062Z,98406.81
2023-03-07T23:26:35.240Z,98403.50
2023-03-07T23:29:02.969Z,98416.81
2023-03-07T23:31:33.349Z,98412.09
2023-03-07T23:34:03.458Z,98406.41
2023-03-07T23:36:32.221Z,98403.63
2023-03-07T23:39:01.740Z,98412.22
2023-03-07T23:41:28.665Z,98406.53
2023-03-07T23:43:58.497Z,98407.47
2023-03-07T23:46:27.736Z,98411.34
2023-03-07T23:48:55.408Z,98409.16
2023-03-07T23:51:23.354Z,98419.56
2023-03-07T23:53:50.287Z,98418.69
2023-03-07T23:56:18.564Z,98407.72
2023-03-07T23:58:49.647Z,98420.31
